createdAt,value
2018-11-05T00:00:53.411Z,24.10
2018-11-05T00:01:52.267Z,23.70
2018-11-05T00:02:54.330Z,23.70
2018-11-05T00:03:52.212Z,23.50
2018-11-05T00:09:13.927Z,24.90
2018-11-05T00:10:13.863Z,24.40
2018-11-05T00:11:18.671Z,24.70
2018-11-05T00:12:13.793Z,25.50
2018-11-05T00:13:13.766Z,24.70
2018-11-05T00:14:13.802Z,23.70
2018-11-05T00:15:13.692Z,25.00
2018-11-05T00:16:13.669Z,25.30
2018-11-05T00:17:13.642Z,26.20
2018-11-05T00:18:13.623Z,25.20
2018-11-05T00:19:13.576Z,24.80
2018-11-05T00:20:13.554Z,26.50
2018-11-05T00:21:13.513Z,24.50
2018-11-05T00:22:13.497Z,29.60
2018-11-05T00:23:13.451Z,29.50
2018-11-05T00:24:13.428Z,29.50
2018-11-05T00:25:13.401Z,30.70
2018-11-05T00:26:13.373Z,29.50
2018-11-05T00:27:13.343Z,30.70
2018-11-05T00:28:13.332Z,31.00
2018-11-05T00:29:13.282Z,34.30
2018-11-05T00:30:13.250Z,33.10
2018-11-05T00:31:13.306Z,31.70
2018-11-05T00:32:13.201Z,31.50
2018-11-05T00:32:59.257Z,34.40
2018-11-05T00:33:59.219Z,31.30
2018-11-05T00:34:59.182Z,31.20
2018-11-05T00:35:59.155Z,29.60
2018-11-05T00:36:59.133Z,32.60
2018-11-05T00:37:59.091Z,32.20
2018-11-05T00:38:59.057Z,33.40
2018-11-05T00:39:59.030Z,33.60
2018-11-05T00:40:59.005Z,33.50
2018-11-05T00:41:58.977Z,33.80
2018-11-05T00:42:58.948Z,34.20
2018-11-05T00:43:58.919Z,33.40
2018-11-05T00:44:58.882Z,32.20
2018-11-05T00:45:58.861Z,33.60
2018-11-05T00:46:58.827Z,31.10
2018-11-05T00:47:58.792Z,32.70
2018-11-05T00:48:58.771Z,33.30
2018-11-05T00:49:58.750Z,34.50
2018-11-05T00:50:58.717Z,34.50
2018-11-05T00:51:58.686Z,33.60
2018-11-05T00:52:58.650Z,35.10
2018-11-05T00:53:58.641Z,35.00
2018-11-05T00:54:58.596Z,35.80
2018-11-05T00:55:58.560Z,34.40
2018-11-05T00:56:58.546Z,37.60
2018-11-05T00:57:58.509Z,36.00
2018-11-05T00:59:44.645Z,36.80
2018-11-05T01:00:44.582Z,35.70
2018-11-05T01:01:44.558Z,37.20
2018-11-05T01:02:44.523Z,35.30
2018-11-05T01:03:44.491Z,34.70
2018-11-05T01:04:44.471Z,35.90
2018-11-05T01:05:44.463Z,35.80
2018-11-05T01:06:44.409Z,34.80
2018-11-05T01:07:44.378Z,34.30
2018-11-05T01:08:44.349Z,34.10
2018-11-05T01:09:44.313Z,33.30
2018-11-05T01:10:44.293Z,33.60
2018-11-05T01:11:44.277Z,34.00
2018-11-05T01:12:44.233Z,35.30
2018-11-05T01:13:44.192Z,34.00
2018-11-05T01:14:44.172Z,35.30
2018-11-05T01:15:44.138Z,35.00
2018-11-05T01:16:44.140Z,34.20
2018-11-05T01:17:44.085Z,35.00
2018-11-05T01:18:44.056Z,36.80
2018-11-05T01:19:44.017Z,36.50
2018-11-05T01:20:44.070Z,36.70
2018-11-05T01:21:30.199Z,37.00
2018-11-05T01:22:30.147Z,37.20
2018-11-05T01:23:30.129Z,36.80
2018-11-05T01:24:30.094Z,34.80
2018-11-05T01:25:30.070Z,36.30
2018-11-05T01:26:30.037Z,34.80
2018-11-05T01:27:30.001Z,35.90
2018-11-05T01:28:29.997Z,37.10
2018-11-05T01:29:29.947Z,37.70
2018-11-05T01:30:29.910Z,38.20
2018-11-05T01:31:29.885Z,38.20
2018-11-05T01:32:29.858Z,39.70
2018-11-05T01:33:29.829Z,39.00
2018-11-05T01:34:15.720Z,38.10
2018-11-05T01:35:15.709Z,41.30
2018-11-05T01:36:15.648Z,40.30
2018-11-05T01:37:15.640Z,40.40
2018-11-05T01:38:15.600Z,39.00
2018-11-05T01:39:15.566Z,39.20
2018-11-05T01:40:15.542Z,39.00
2018-11-05T01:41:15.503Z,39.70
2018-11-05T01:42:15.478Z,38.50
2018-11-05T01:43:15.452Z,39.40
2018-11-05T01:44:15.419Z,37.00
2018-11-05T01:45:15.379Z,36.90
2018-11-05T01:46:15.366Z,36.30
2018-11-05T01:47:15.338Z,36.40
2018-11-05T01:48:15.304Z,36.10
2018-11-05T01:49:15.283Z,34.00
2018-11-05T01:50:16.320Z,35.60
2018-11-05T01:51:15.208Z,36.10
2018-11-05T01:53:10.677Z,44.70
2018-11-05T01:54:10.712Z,36.60
2018-11-05T01:55:10.634Z,35.70
2018-11-05T01:56:10.581Z,35.50
2018-11-05T01:57:02.581Z,41.40
2018-11-05T01:58:02.473Z,36.10
2018-11-05T01:59:02.460Z,38.30
2018-11-05T02:00:02.408Z,39.20
2018-11-05T02:01:02.371Z,36.60
2018-11-05T02:02:02.371Z,38.50
2018-11-05T02:03:02.319Z,38.00
2018-11-05T02:04:02.290Z,38.10
2018-11-05T02:05:02.262Z,36.80
2018-11-05T02:06:02.228Z,37.40
2018-11-05T02:07:02.193Z,36.50
2018-11-05T02:08:02.184Z,35.60
2018-11-05T02:09:02.137Z,37.60
2018-11-05T02:10:02.172Z,37.80
2018-11-05T02:11:02.076Z,36.50
2018-11-05T02:12:02.060Z,35.70
2018-11-05T02:13:02.028Z,38.80
2018-11-05T02:14:02.011Z,38.40
2018-11-05T02:15:02.113Z,39.00
2018-11-05T02:16:01.984Z,39.00
2018-11-05T02:17:04.051Z,38.30
2018-11-05T02:20:17.509Z,39.40
2018-11-05T02:21:15.885Z,38.30
2018-11-05T02:22:15.858Z,39.40
2018-11-05T02:23:15.832Z,38.20
2018-11-05T02:24:15.795Z,39.90
2018-11-05T02:25:15.763Z,37.00
2018-11-05T02:26:15.736Z,37.60
2018-11-05T02:27:15.744Z,37.30
2018-11-05T02:28:15.674Z,37.10
2018-11-05T02:29:15.643Z,38.40
2018-11-05T02:30:15.611Z,37.00
2018-11-05T02:31:15.616Z,37.70
2018-11-05T02:32:15.560Z,39.60
2018-11-05T02:33:15.523Z,40.60
2018-11-05T02:34:15.502Z,41.30
2018-11-05T02:35:15.462Z,40.50
2018-11-05T02:36:15.436Z,42.30
2018-11-05T02:37:15.403Z,39.60
2018-11-05T02:38:15.373Z,39.10
2018-11-05T02:39:15.343Z,39.30
2018-11-05T02:40:15.353Z,39.90
2018-11-05T02:41:15.300Z,38.60
2018-11-05T02:43:01.483Z,40.70
2018-11-05T02:44:01.413Z,39.70
2018-11-05T02:45:01.391Z,39.50
2018-11-05T02:46:01.358Z,39.00
2018-11-05T02:47:03.452Z,40.20
2018-11-05T02:48:01.306Z,39.10
2018-11-05T02:49:03.372Z,40.80
2018-11-05T02:50:01.255Z,40.10
2018-11-05T02:51:01.292Z,40.20
2018-11-05T02:52:01.181Z,39.90
2018-11-05T02:53:01.202Z,40.80
2018-11-05T02:54:01.205Z,39.30
2018-11-05T02:55:01.095Z,40.10
2018-11-05T02:56:07.807Z,41.30
2018-11-05T02:57:01.064Z,37.80
2018-11-05T02:58:01.069Z,40.80
2018-11-05T03:04:19.595Z,46.30
2018-11-05T03:05:30.413Z,40.30
2018-11-05T03:11:45.938Z,41.50
2018-11-05T03:12:42.637Z,41.10
2018-11-05T03:13:42.703Z,38.60
2018-11-05T03:14:42.581Z,39.40
2018-11-05T03:15:42.547Z,40.20
2018-11-05T03:16:42.516Z,40.30
2018-11-05T03:17:42.480Z,39.60
2018-11-05T03:18:42.460Z,40.50
2018-11-05T03:19:42.423Z,40.70
2018-11-05T03:20:42.397Z,39.60
2018-11-05T03:21:42.370Z,39.20
2018-11-05T03:22:42.337Z,38.20
2018-11-05T03:23:42.361Z,38.30
2018-11-05T03:24:42.275Z,39.90
2018-11-05T03:25:42.248Z,37.30
2018-11-05T03:26:42.226Z,38.50
2018-11-05T03:27:42.280Z,38.60
2018-11-05T03:28:42.165Z,38.00
2018-11-05T03:29:42.194Z,39.90
2018-11-05T03:30:42.103Z,40.30
2018-11-05T03:31:42.100Z,40.10
2018-11-05T03:32:42.050Z,40.10
2018-11-05T03:33:42.117Z,39.30
2018-11-05T03:34:41.982Z,37.80
2018-11-05T03:35:41.992Z,39.80
2018-11-05T03:36:41.921Z,38.60
2018-11-05T03:37:48.461Z,37.50
2018-11-05T03:38:48.420Z,41.70
2018-11-05T03:39:48.450Z,36.50
2018-11-05T03:40:48.347Z,37.30
2018-11-05T03:41:48.294Z,37.50
2018-11-05T03:42:48.272Z,37.40
2018-11-05T03:43:48.253Z,37.50
2018-11-05T03:44:48.223Z,37.40
2018-11-05T03:45:49.202Z,36.50
2018-11-05T03:46:48.149Z,37.50
2018-11-05T03:47:48.118Z,36.30
2018-11-05T03:48:48.095Z,37.70
2018-11-05T03:49:48.062Z,37.30
2018-11-05T03:50:51.602Z,39.20
2018-11-05T03:51:48.084Z,36.80
2018-11-05T03:52:47.976Z,37.80
2018-11-05T03:53:48.018Z,37.20
2018-11-05T03:54:47.947Z,39.40
2018-11-05T03:55:59.699Z,39.90
2018-11-05T03:56:47.915Z,37.50
2018-11-05T03:57:47.920Z,38.40
2018-11-05T03:58:47.801Z,39.50
2018-11-05T03:59:47.765Z,37.80
2018-11-05T04:00:47.842Z,37.90
2018-11-05T04:03:00.171Z,41.90
2018-11-05T04:03:59.060Z,36.60
2018-11-05T04:04:59.014Z,37.00
2018-11-05T04:06:01.116Z,36.60
2018-11-05T04:06:58.964Z,36.70
2018-11-05T04:07:59.972Z,35.40
2018-11-05T04:08:58.895Z,36.80
2018-11-05T04:09:59.886Z,35.60
2018-11-05T04:10:58.835Z,37.90
2018-11-05T04:11:58.864Z,34.70
2018-11-05T04:12:58.797Z,37.20
2018-11-05T04:13:58.752Z,36.10
2018-11-05T04:14:58.724Z,36.20
2018-11-05T04:15:58.765Z,36.90
2018-11-05T04:16:58.661Z,38.00
2018-11-05T04:17:58.632Z,37.00
2018-11-05T04:18:58.611Z,36.80
2018-11-05T04:19:58.578Z,37.60
2018-11-05T04:20:58.545Z,37.80
2018-11-05T04:21:58.515Z,37.00
2018-11-05T04:22:58.487Z,35.20
2018-11-05T04:23:58.461Z,38.20
2018-11-05T04:24:58.433Z,34.70
2018-11-05T04:25:58.402Z,36.80
2018-11-05T04:26:58.376Z,37.20
2018-11-05T04:27:58.454Z,37.20
2018-11-05T04:28:58.310Z,35.40
2018-11-05T04:29:59.409Z,38.20
2018-11-05T04:30:58.257Z,38.20
2018-11-05T04:31:58.294Z,37.20
2018-11-05T04:32:58.196Z,38.30
2018-11-05T04:33:58.166Z,37.70
2018-11-05T04:34:58.137Z,38.60
2018-11-05T04:35:58.126Z,36.70
2018-11-05T04:36:58.127Z,36.50
2018-11-05T04:37:58.056Z,37.70
2018-11-05T04:39:44.690Z,37.70
2018-11-05T04:40:44.648Z,37.20
2018-11-05T04:41:44.609Z,37.10
2018-11-05T04:42:44.590Z,37.30
2018-11-05T04:43:44.560Z,36.00
2018-11-05T04:44:44.529Z,36.40
2018-11-05T04:45:44.497Z,38.70
2018-11-05T04:46:44.576Z,37.20
2018-11-05T04:47:44.428Z,37.70
2018-11-05T04:48:44.419Z,36.70
2018-11-05T04:49:44.371Z,37.60
2018-11-05T04:50:44.344Z,35.80
2018-11-05T04:51:44.316Z,34.20
2018-11-05T04:52:44.287Z,34.40
2018-11-05T04:54:30.875Z,37.80
2018-11-05T04:55:30.822Z,36.20
2018-11-05T04:57:24.529Z,35.00
2018-11-05T04:58:24.488Z,34.20
2018-11-05T04:59:24.462Z,34.50
2018-11-05T05:00:24.432Z,35.00
2018-11-05T05:01:24.419Z,34.00
2018-11-05T05:02:10.700Z,37.00
2018-11-05T05:03:10.617Z,34.20
2018-11-05T05:04:10.556Z,33.80
2018-11-05T05:05:10.521Z,34.10
2018-11-05T05:06:10.500Z,34.00
2018-11-05T05:07:10.471Z,33.20
2018-11-05T05:08:10.446Z,32.30
2018-11-05T05:09:10.407Z,32.60
2018-11-05T05:10:10.385Z,33.70
2018-11-05T05:11:10.352Z,32.10
2018-11-05T05:12:10.317Z,33.00
2018-11-05T05:13:10.297Z,32.80
2018-11-05T05:14:10.331Z,33.90
2018-11-05T05:15:10.250Z,33.70
2018-11-05T05:16:10.278Z,33.70
2018-11-05T05:17:10.183Z,33.70
2018-11-05T05:18:10.159Z,33.70
2018-11-05T05:19:10.118Z,34.20
2018-11-05T05:20:10.099Z,35.90
2018-11-05T05:21:10.063Z,34.40
2018-11-05T05:22:10.030Z,34.90
2018-11-05T05:23:10.047Z,31.80
2018-11-05T05:27:51.523Z,51.90
2018-11-05T05:28:52.611Z,33.60
2018-11-05T05:29:38.627Z,34.50
2018-11-05T05:30:38.498Z,34.90
2018-11-05T05:31:33.730Z,40.10
2018-11-05T05:32:33.785Z,33.60
2018-11-05T05:33:33.726Z,33.70
2018-11-05T05:34:33.631Z,37.10
2018-11-05T05:35:33.624Z,37.60
2018-11-05T05:36:33.574Z,36.10
2018-11-05T05:37:33.550Z,35.90
2018-11-05T05:38:33.617Z,35.80
2018-11-05T05:39:33.482Z,36.00
2018-11-05T05:40:33.479Z,35.80
2018-11-05T05:41:33.537Z,36.80
2018-11-05T05:42:33.395Z,37.60
2018-11-05T05:43:35.469Z,37.20
2018-11-05T05:44:33.334Z,36.90
2018-11-05T05:45:34.417Z,38.00
2018-11-05T05:46:33.273Z,36.20
2018-11-05T05:47:40.236Z,38.40
2018-11-05T05:49:20.212Z,37.70
2018-11-05T05:50:20.203Z,36.40
2018-11-05T05:51:21.113Z,36.50
2018-11-05T05:52:20.043Z,35.60
2018-11-05T05:53:26.965Z,36.70
2018-11-05T05:54:19.971Z,36.50
2018-11-05T05:58:08.939Z,38.70
2018-11-05T05:59:13.590Z,38.10
2018-11-05T06:00:08.873Z,37.70
2018-11-05T06:01:08.827Z,36.60
2018-11-05T06:02:09.819Z,37.40
2018-11-05T06:03:08.780Z,37.00
2018-11-05T06:04:08.755Z,36.60
2018-11-05T06:05:14.682Z,36.20
2018-11-05T06:06:08.733Z,35.30
2018-11-05T06:06:54.475Z,36.40
2018-11-05T06:07:54.306Z,36.20
2018-11-05T06:08:54.322Z,35.10
2018-11-05T06:09:54.256Z,35.00
2018-11-05T06:10:54.341Z,33.90
2018-11-05T06:12:40.295Z,35.40
2018-11-05T06:13:40.234Z,34.30
2018-11-05T06:14:40.212Z,34.50
2018-11-05T06:15:41.359Z,35.10
2018-11-05T06:16:40.146Z,36.40
2018-11-05T06:17:46.113Z,36.20
2018-11-05T06:18:40.095Z,35.60
2018-11-05T06:19:40.165Z,33.00
2018-11-05T06:20:40.015Z,37.30
2018-11-05T06:23:51.068Z,37.00
2018-11-05T06:24:51.040Z,35.30
2018-11-05T06:25:51.064Z,36.40
2018-11-05T06:26:50.976Z,36.20
2018-11-05T06:28:17.836Z,45.40
2018-11-05T06:29:17.798Z,38.40
2018-11-05T06:30:18.832Z,38.70
2018-11-05T06:31:17.724Z,40.40
2018-11-05T06:32:17.818Z,39.60
2018-11-05T06:33:17.733Z,38.50
2018-11-05T06:34:17.751Z,39.30
2018-11-05T06:35:35.375Z,39.70
2018-11-05T06:36:34.247Z,38.80
2018-11-05T06:37:34.217Z,39.90
2018-11-05T06:38:34.161Z,38.40
2018-11-05T06:39:39.978Z,38.70
2018-11-05T06:40:34.096Z,38.70
2018-11-05T06:41:35.315Z,36.50
2018-11-05T06:42:34.045Z,38.50
2018-11-05T06:43:34.051Z,37.80
2018-11-05T06:44:34.083Z,37.10
2018-11-05T06:45:36.068Z,38.10
2018-11-05T06:47:39.080Z,42.10
2018-11-05T06:48:38.783Z,40.30
2018-11-05T06:49:38.693Z,40.10
2018-11-05T06:50:38.732Z,37.90
2018-11-05T06:51:38.610Z,39.20
2018-11-05T06:52:40.635Z,38.20
2018-11-05T06:53:38.546Z,37.10
2018-11-05T06:54:38.665Z,39.40
2018-11-05T06:55:38.493Z,39.90
2018-11-05T06:56:38.520Z,37.20
2018-11-05T06:57:38.493Z,38.30
2018-11-05T06:58:38.398Z,41.10
2018-11-05T06:59:38.374Z,40.70
2018-11-05T07:00:24.626Z,41.00
2018-11-05T07:01:24.569Z,38.20
2018-11-05T07:02:24.622Z,38.10
2018-11-05T07:03:24.511Z,37.60
2018-11-05T07:04:24.471Z,37.30
2018-11-05T07:05:24.479Z,39.20
2018-11-05T07:06:24.424Z,39.30
2018-11-05T07:07:24.471Z,39.40
2018-11-05T07:08:24.359Z,39.20
2018-11-05T07:09:24.382Z,37.50
2018-11-05T07:10:24.331Z,38.90
2018-11-05T07:11:25.502Z,40.10
2018-11-05T07:12:24.263Z,39.10
2018-11-05T07:13:24.222Z,38.40
2018-11-05T07:14:24.180Z,37.50
2018-11-05T07:15:24.158Z,37.30
2018-11-05T07:16:24.115Z,39.40
2018-11-05T07:17:24.089Z,38.20
2018-11-05T07:18:24.115Z,40.20
2018-11-05T07:19:24.083Z,39.40
2018-11-05T07:20:24.004Z,37.10
2018-11-05T07:21:23.965Z,38.60
2018-11-05T07:22:23.945Z,37.50
2018-11-05T07:24:10.214Z,39.70
2018-11-05T07:25:10.252Z,37.20
2018-11-05T07:26:10.133Z,38.60
2018-11-05T07:27:10.115Z,38.90
2018-11-05T07:28:31.199Z,39.60
2018-11-05T07:29:10.043Z,38.50
2018-11-05T07:31:04.832Z,39.60
2018-11-05T07:32:04.775Z,39.10
2018-11-05T07:33:05.917Z,39.90
2018-11-05T07:34:04.871Z,39.60
2018-11-05T07:35:04.766Z,38.60
2018-11-05T07:36:04.660Z,40.30
2018-11-05T07:37:04.662Z,38.70
2018-11-05T07:38:04.607Z,40.80
2018-11-05T07:39:04.677Z,37.80
2018-11-05T07:40:04.532Z,40.70
2018-11-05T07:41:04.581Z,40.00
2018-11-05T07:42:04.478Z,39.40
2018-11-05T07:43:04.498Z,40.10
2018-11-05T07:44:04.435Z,39.40
2018-11-05T07:45:04.410Z,41.00
2018-11-05T07:46:04.360Z,41.30
2018-11-05T07:47:04.426Z,42.90
2018-11-05T07:48:04.297Z,43.30
2018-11-05T07:49:04.328Z,43.30
2018-11-05T07:50:04.263Z,44.70
2018-11-05T07:51:04.240Z,45.30
2018-11-05T07:52:04.181Z,42.80
2018-11-05T07:53:09.074Z,41.70
2018-11-05T07:55:45.721Z,40.80
2018-11-05T07:56:45.819Z,41.50
2018-11-05T08:01:55.289Z,43.80
2018-11-05T08:02:56.776Z,44.30
2018-11-05T08:03:55.207Z,45.00
2018-11-05T08:04:55.227Z,43.30
2018-11-05T08:05:55.177Z,42.60
2018-11-05T08:07:02.083Z,42.80
2018-11-05T08:07:55.105Z,44.30
2018-11-05T08:11:16.168Z,49.60
2018-11-05T08:12:17.204Z,42.20
2018-11-05T08:14:29.107Z,46.50
2018-11-05T08:15:30.003Z,42.40
2018-11-05T08:16:28.961Z,42.70
2018-11-05T08:17:30.012Z,43.40
2018-11-05T08:18:28.902Z,44.40
2018-11-05T08:19:30.965Z,42.90
2018-11-05T08:20:28.835Z,41.90
2018-11-05T08:21:30.869Z,41.90
2018-11-05T08:22:28.754Z,43.20
2018-11-05T08:23:34.771Z,43.40
2018-11-05T08:25:39.669Z,48.70
2018-11-05T08:26:40.729Z,44.10
2018-11-05T08:27:39.577Z,46.40
2018-11-05T08:28:39.605Z,45.90
2018-11-05T08:29:39.529Z,46.00
2018-11-05T08:30:39.522Z,47.30
2018-11-05T08:31:39.463Z,46.50
2018-11-05T08:32:39.535Z,48.10
2018-11-05T08:33:39.418Z,46.30
2018-11-05T08:34:39.447Z,47.20
2018-11-05T08:35:39.335Z,47.50
2018-11-05T08:36:39.359Z,47.30
2018-11-05T08:38:49.274Z,47.20
2018-11-05T08:39:50.327Z,47.20
2018-11-05T08:44:25.974Z,45.50
2018-11-05T08:45:25.986Z,40.70
2018-11-05T08:46:25.878Z,42.60
2018-11-05T08:47:25.950Z,43.40
2018-11-05T08:48:25.816Z,45.50
2018-11-05T08:49:27.501Z,46.10
2018-11-05T08:50:25.778Z,43.90
2018-11-05T08:51:27.002Z,46.00
2018-11-05T08:52:25.695Z,44.50
2018-11-05T08:53:25.731Z,44.80
2018-11-05T08:54:25.627Z,46.20
2018-11-05T08:55:25.657Z,44.80
2018-11-05T08:58:05.727Z,43.90
2018-11-05T08:59:05.702Z,38.90
2018-11-05T09:00:05.640Z,38.20
2018-11-05T09:01:05.719Z,38.90
2018-11-05T09:02:05.573Z,38.70
2018-11-05T09:03:05.541Z,39.10
2018-11-05T09:04:05.520Z,41.20
2018-11-05T09:05:06.696Z,39.70
2018-11-05T09:06:05.452Z,40.90
2018-11-05T09:07:06.521Z,42.30
2018-11-05T09:08:05.388Z,40.40
2018-11-05T09:09:05.456Z,40.00
2018-11-05T09:11:10.430Z,43.70
2018-11-05T09:12:10.016Z,36.90
2018-11-05T09:13:09.798Z,36.10
2018-11-05T09:15:04.652Z,39.40
2018-11-05T09:16:04.547Z,37.60
2018-11-05T09:17:04.593Z,36.30
2018-11-05T09:18:04.473Z,38.20
2018-11-05T09:19:05.556Z,39.40
2018-11-05T09:20:04.425Z,37.80
2018-11-05T09:21:04.432Z,37.20
2018-11-05T09:22:04.354Z,35.80
2018-11-05T09:23:04.435Z,35.80
2018-11-05T09:24:04.290Z,35.50
2018-11-05T09:25:04.354Z,36.20
2018-11-05T09:26:54.312Z,39.70
2018-11-05T09:27:54.468Z,37.60
2018-11-05T09:28:54.227Z,35.50
2018-11-05T09:29:54.253Z,36.40
2018-11-05T09:30:54.184Z,37.20
2018-11-05T09:31:54.242Z,35.90
2018-11-05T09:32:54.106Z,36.70
2018-11-05T09:33:55.176Z,37.60
2018-11-05T09:34:54.061Z,36.40
2018-11-05T09:35:54.052Z,36.80
2018-11-05T09:36:53.997Z,37.60
2018-11-05T09:37:53.976Z,37.30
2018-11-05T09:38:53.929Z,35.40
2018-11-05T09:39:54.000Z,35.90
2018-11-05T09:40:53.892Z,33.60
2018-11-05T09:41:53.895Z,34.80
2018-11-05T09:43:47.535Z,34.90
2018-11-05T09:44:47.580Z,33.70
2018-11-05T09:45:47.456Z,32.70
2018-11-05T09:46:47.467Z,34.50
2018-11-05T09:47:47.443Z,32.70
2018-11-05T09:48:47.389Z,33.90
2018-11-05T09:49:47.343Z,35.10
2018-11-05T09:50:47.478Z,34.00
2018-11-05T09:51:47.278Z,34.80
2018-11-05T09:52:47.302Z,34.10
2018-11-05T09:53:47.226Z,32.90
2018-11-05T09:54:47.224Z,33.40
2018-11-05T09:55:47.176Z,31.90
2018-11-05T09:56:47.131Z,33.00
2018-11-05T09:57:47.096Z,32.40
2018-11-05T09:58:47.158Z,30.70
2018-11-05T09:59:47.021Z,29.60
2018-11-05T10:00:48.079Z,29.60
2018-11-05T10:01:46.961Z,29.30
2018-11-05T10:02:47.030Z,29.00
2018-11-05T10:03:47.066Z,27.70
2018-11-05T10:04:47.239Z,28.00
2018-11-05T10:05:46.850Z,28.10
2018-11-05T10:06:46.921Z,26.60
2018-11-05T10:07:46.799Z,27.40
2018-11-05T10:08:46.812Z,26.80
2018-11-05T10:10:45.791Z,25.50
2018-11-05T10:11:45.808Z,24.40
2018-11-05T10:12:45.686Z,22.60
2018-11-05T10:13:45.715Z,21.00
2018-11-05T10:14:45.637Z,20.60
2018-11-05T10:15:46.635Z,19.00
2018-11-05T10:16:45.587Z,19.70
2018-11-05T10:18:34.008Z,19.40
2018-11-05T10:19:34.088Z,17.40
2018-11-05T10:20:33.936Z,18.60
2018-11-05T10:21:33.984Z,18.20
2018-11-05T10:22:33.863Z,18.30
2018-11-05T10:23:33.894Z,20.00
2018-11-05T10:24:33.919Z,19.50
2018-11-05T10:25:35.847Z,18.90
2018-11-05T10:26:33.749Z,19.00
2018-11-05T10:27:33.818Z,20.10
2018-11-05T10:28:33.700Z,18.50
2018-11-05T10:29:34.761Z,18.90
2018-11-05T10:30:33.617Z,17.40
2018-11-05T10:31:33.629Z,18.50
2018-11-05T10:32:33.561Z,19.10
2018-11-05T10:33:26.946Z,20.80
2018-11-05T10:34:26.916Z,18.80
2018-11-05T10:35:26.780Z,18.70
2018-11-05T10:36:26.805Z,19.50
2018-11-05T10:37:26.726Z,18.80
2018-11-05T10:38:27.804Z,18.80
2018-11-05T10:39:26.690Z,20.00
2018-11-05T10:40:21.617Z,20.80
2018-11-05T10:41:21.515Z,19.90
2018-11-05T10:42:21.408Z,19.50
2018-11-05T10:43:21.423Z,20.30
2018-11-05T10:44:21.363Z,20.10
2018-11-05T10:45:21.345Z,22.20
2018-11-05T10:46:21.378Z,20.30
2018-11-05T10:47:21.336Z,21.40
2018-11-05T10:48:21.248Z,20.50
2018-11-05T10:49:21.264Z,21.20
2018-11-05T10:50:21.211Z,19.90
2018-11-05T10:51:21.239Z,20.10
2018-11-05T10:52:21.155Z,20.00
2018-11-05T10:53:21.178Z,22.50
2018-11-05T10:54:21.032Z,22.10
2018-11-05T10:55:22.111Z,20.00
2018-11-05T10:56:20.977Z,22.30
2018-11-05T10:57:21.008Z,18.80
2018-11-05T10:58:21.106Z,17.70
2018-11-05T10:59:08.118Z,19.50
2018-11-05T11:00:09.147Z,18.20
2018-11-05T11:01:08.020Z,18.10
2018-11-05T11:02:10.088Z,17.90
2018-11-05T11:03:07.956Z,17.30
2018-11-05T11:04:10.274Z,17.20
2018-11-05T11:05:07.925Z,18.70
2018-11-05T11:06:08.981Z,18.60
2018-11-05T11:07:07.869Z,18.30
2018-11-05T11:08:07.888Z,17.00
2018-11-05T11:09:07.782Z,17.30
2018-11-05T11:10:07.856Z,16.50
2018-11-05T11:11:07.725Z,17.90
2018-11-05T11:12:07.879Z,17.80
2018-11-05T11:13:07.813Z,17.80
2018-11-05T11:15:00.127Z,18.80
2018-11-05T11:15:59.809Z,17.80
2018-11-05T11:16:59.919Z,18.20
2018-11-05T11:17:59.755Z,18.30
2018-11-05T11:18:59.849Z,18.30
2018-11-05T11:19:59.714Z,16.40
2018-11-05T11:20:59.754Z,17.90
2018-11-05T11:21:59.650Z,18.10
2018-11-05T11:22:59.603Z,18.80
2018-11-05T11:23:59.574Z,17.10
2018-11-05T11:25:00.652Z,18.00
2018-11-05T11:25:59.514Z,16.90
2018-11-05T11:28:17.007Z,19.90
2018-11-05T11:29:17.101Z,17.00
2018-11-05T11:31:12.166Z,17.10
2018-11-05T11:32:11.003Z,17.90
2018-11-05T11:33:11.144Z,16.80
2018-11-05T11:34:10.939Z,16.60
2018-11-05T11:35:12.043Z,16.40
2018-11-05T11:36:10.887Z,15.90
2018-11-05T11:37:13.111Z,16.40
2018-11-05T11:38:10.822Z,15.10
2018-11-05T11:39:10.789Z,14.80
2018-11-05T11:40:10.945Z,15.20
2018-11-05T11:41:10.722Z,15.60
2018-11-05T11:42:10.696Z,15.60
2018-11-05T11:43:10.684Z,16.90
2018-11-05T11:44:56.999Z,17.40
2018-11-05T11:45:57.066Z,16.40
2018-11-05T11:46:56.833Z,15.00
2018-11-05T11:47:56.882Z,16.70
2018-11-05T11:48:56.786Z,14.00
2018-11-05T11:49:56.778Z,13.60
2018-11-05T11:50:56.710Z,14.60
2018-11-05T11:51:56.783Z,15.70
2018-11-05T11:52:56.729Z,14.10
2018-11-05T11:53:57.725Z,14.80
2018-11-05T11:54:56.612Z,14.30
2018-11-05T11:55:56.639Z,15.90
2018-11-05T11:57:43.898Z,15.20
2018-11-05T11:58:43.852Z,13.30
2018-11-05T11:59:43.882Z,15.60
2018-11-05T12:00:43.785Z,17.50
2018-11-05T12:01:43.742Z,16.60
2018-11-05T12:02:43.762Z,17.50
2018-11-05T12:03:43.769Z,18.20
2018-11-05T12:04:43.687Z,18.80
2018-11-05T12:05:43.627Z,17.60
2018-11-05T12:06:43.605Z,19.00
2018-11-05T12:07:43.573Z,18.80
2018-11-05T12:08:49.412Z,17.70
2018-11-05T12:09:43.519Z,16.70
2018-11-05T12:10:43.688Z,15.20
2018-11-05T12:11:43.459Z,14.10
2018-11-05T12:12:43.433Z,15.50
2018-11-05T12:13:30.175Z,13.10
2018-11-05T12:14:30.199Z,12.30
2018-11-05T12:15:30.212Z,12.20
2018-11-05T12:16:30.075Z,12.90
2018-11-05T12:17:30.066Z,12.60
2018-11-05T12:18:30.008Z,12.00
2018-11-05T12:19:29.979Z,10.80
2018-11-05T12:20:30.147Z,10.60
2018-11-05T12:21:29.916Z,10.70
2018-11-05T12:22:29.896Z,10.60
2018-11-05T12:23:29.895Z,11.60
2018-11-05T12:24:29.892Z,10.90
2018-11-05T12:25:29.798Z,10.80
2018-11-05T12:26:29.772Z,10.90
2018-11-05T12:27:29.753Z,10.30
2018-11-05T12:28:29.705Z,9.60
2018-11-05T12:29:29.795Z,8.80
2018-11-05T12:30:29.661Z,9.40
2018-11-05T12:31:29.801Z,9.60
2018-11-05T12:32:29.591Z,9.70
2018-11-05T12:33:29.713Z,9.40
2018-11-05T12:34:29.534Z,10.00
2018-11-05T12:35:35.274Z,10.40
2018-11-05T12:36:29.474Z,9.00
2018-11-05T12:37:29.622Z,9.40
2018-11-05T12:38:29.496Z,9.80
2018-11-05T12:39:29.395Z,9.30
2018-11-05T12:40:29.362Z,9.30
2018-11-05T12:41:29.464Z,8.60
2018-11-05T12:43:49.198Z,12.70
2018-11-05T12:44:50.022Z,8.80
2018-11-05T12:45:48.825Z,8.70
2018-11-05T12:46:49.874Z,11.30
2018-11-05T12:47:48.802Z,10.60
2018-11-05T12:48:48.742Z,10.70
2018-11-05T12:49:55.829Z,13.60
2018-11-05T12:50:48.784Z,12.80
2018-11-05T12:51:48.698Z,12.60
2018-11-05T12:52:48.617Z,12.20
2018-11-05T12:53:48.716Z,11.40
2018-11-05T12:54:48.572Z,10.50
2018-11-05T12:55:48.636Z,9.50
2018-11-05T12:56:48.503Z,10.40
2018-11-05T12:57:48.554Z,10.40
2018-11-05T12:58:48.443Z,9.30
2018-11-05T12:59:48.419Z,10.50
2018-11-05T13:00:48.530Z,9.20
2018-11-05T13:01:48.386Z,10.50
2018-11-05T13:02:48.319Z,9.70
2018-11-05T13:04:35.558Z,9.50
2018-11-05T13:05:35.520Z,9.90
2018-11-05T13:06:35.481Z,9.90
2018-11-05T13:07:35.622Z,9.30
2018-11-05T13:08:35.433Z,9.50
2018-11-05T13:09:35.530Z,9.30
2018-11-05T13:10:35.399Z,9.80
2018-11-05T13:11:35.429Z,9.10
2018-11-05T13:12:35.332Z,9.80
2018-11-05T13:13:35.450Z,9.60
2018-11-05T13:14:35.252Z,8.60
2018-11-05T13:15:35.426Z,9.00
2018-11-05T13:16:35.203Z,8.40
2018-11-05T13:17:35.283Z,8.80
2018-11-05T13:18:35.132Z,10.80
2018-11-05T13:19:35.184Z,9.20
2018-11-05T13:20:35.077Z,9.30
2018-11-05T13:21:35.199Z,9.00
2018-11-05T13:22:35.017Z,9.40
2018-11-05T13:23:37.164Z,10.20
2018-11-05T13:24:34.979Z,9.10
2018-11-05T13:25:35.032Z,8.60
2018-11-05T13:26:34.928Z,8.70
2018-11-05T13:28:23.108Z,9.40
2018-11-05T13:29:23.007Z,9.00
2018-11-05T13:30:23.081Z,10.60
2018-11-05T13:31:22.931Z,9.70
2018-11-05T13:32:22.907Z,9.30
2018-11-05T13:33:28.634Z,9.00
2018-11-05T13:34:22.845Z,8.80
2018-11-05T13:35:24.976Z,8.30
2018-11-05T13:36:22.780Z,9.40
2018-11-05T13:37:23.169Z,9.30
2018-11-05T13:38:22.741Z,9.00
2018-11-05T13:39:22.862Z,8.60
2018-11-05T13:40:22.722Z,9.10
2018-11-05T13:41:22.719Z,8.80
2018-11-05T13:43:59.236Z,13.80
2018-11-05T13:44:59.213Z,9.00
2018-11-05T13:48:02.996Z,23.60
2018-11-05T13:49:08.412Z,8.60
2018-11-05T13:50:02.872Z,8.80
2018-11-05T13:51:02.703Z,8.60
2018-11-05T13:52:02.592Z,8.70
2018-11-05T13:53:02.007Z,12.80
2018-11-05T13:54:01.968Z,8.80
2018-11-05T13:55:02.259Z,8.60
2018-11-05T13:56:01.913Z,8.60
2018-11-05T13:57:01.825Z,8.30
2018-11-05T13:58:02.002Z,7.70
2018-11-05T13:59:01.766Z,8.20
2018-11-05T14:00:01.901Z,9.30
2018-11-05T14:01:01.709Z,7.60
2018-11-05T14:02:01.704Z,8.00
2018-11-05T14:03:58.934Z,9.30